Ovalle, Chile
Current Conditions -  °F | °C
As of 12:00 PM on Sunday 25 Jan 2015 (Local Time) from SCSE Reporting Station
Overcast Overcast  
Wind Chill: 68°   Ceiling: 2200
Heat Index: 68°   Visibility: 6mi
Dew Point: 57°   Wind: 8mph
Humidity: 68%   Direction: 260°W
Pressure: 29.94"   Gusts: NA
Location:  30.59°S, 71.2°W
Report Text: SCSE 251600Z 26007KT 9999 OVC022 20/14 Q1014
Loading
Personal Weather Stations






























Interactive Weather Map New forecast layout! Learn more

10-Day Weather Forecast

Advertisements
Track Severe Weather on mobile